Time;durP1;ratioP1;P1;durP2;ratioP2;P2;SDS_P1;SDS_P2;PMS_P1;PMS_P2;Temp;Humidity;BMP_temperature;BMP_pressure;BME280_temperature;BME280_humidity;BME280_pressure;Samples;Min_cycle;Max_cycle;Signal;HPM_P1;HPM_P2
2024/01/28 00:02:15;;;;;;;1.30;1.30;;;;;;;-4.05;98.98;100263.38;4990748;28;20189;-88
2024/01/28 00:04:40;;;;;;;1.20;1.20;;;;;;;-4.18;98.93;100256.81;4997744;28;20077;-90
2024/01/28 00:07:06;;;;;;;1.20;1.20;;;;;;;-4.06;99.14;100252.03;4984746;28;20501;-89
2024/01/28 00:09:33;;;;;;;1.20;1.20;;;;;;;-4.28;98.94;100255.63;4992241;28;20030;-88
2024/01/28 00:11:58;;;;;;;1.30;1.30;;;;;;;-4.44;98.79;100255.63;4996428;28;20030;-88
2024/01/28 00:14:23;;;;;;;1.20;1.20;;;;;;;-4.46;99.38;100258.03;5010018;28;20378;-88
2024/01/28 00:16:49;;;;;;;1.30;1.30;;;;;;;-4.24;100.00;100257.81;4996964;28;20037;-90
2024/01/28 00:19:15;;;;;;;1.30;1.30;;;;;;;-4.61;100.00;100252.78;4983612;28;20121;-89
2024/01/28 00:21:40;;;;;;;1.30;1.30;;;;;;;-4.39;100.00;100255.38;4981460;28;20038;-89
2024/01/28 00:24:06;;;;;;;1.20;1.20;;;;;;;-4.19;100.00;100244.53;4981489;28;20066;-90
2024/01/28 00:26:41;;;;;;;1.20;1.20;;;;;;;-4.37;100.00;100245.09;5014070;28;20026;-92
2024/01/28 00:29:07;;;;;;;1.30;1.30;;;;;;;-4.55;100.00;100251.81;5008122;28;20031;-93
2024/01/28 00:31:33;;;;;;;1.20;1.20;;;;;;;-4.45;100.00;100240.75;5011527;28;20046;-91
2024/01/28 00:34:00;;;;;;;1.30;1.30;;;;;;;-4.24;100.00;100245.72;4986500;28;20042;-91
2024/01/28 00:36:26;;;;;;;1.25;1.25;;;;;;;-4.19;100.00;100247.16;4997168;28;20030;-89
2024/01/28 00:38:52;;;;;;;1.20;1.20;;;;;;;-4.22;100.00;100251.09;4994037;28;20034;-89
2024/01/28 00:41:28;;;;;;;1.30;1.30;;;;;;;-4.18;100.00;100245.47;4982177;28;20072;-89
2024/01/28 00:43:54;;;;;;;1.20;1.20;;;;;;;-4.29;100.00;100241.69;4997497;28;20042;-89
2024/01/28 00:46:20;;;;;;;1.30;1.30;;;;;;;-4.16;100.00;100230.94;4976806;28;20081;-89
2024/01/28 00:48:48;;;;;;;1.23;1.23;;;;;;;-4.27;100.00;100229.72;4997575;28;20547;-88
2024/01/28 00:51:13;;;;;;;1.30;1.30;;;;;;;-4.43;100.00;100232.31;5001222;28;20042;-88
2024/01/28 00:53:39;;;;;;;1.30;1.30;;;;;;;-4.51;100.00;100229.63;4976933;28;20042;-88
2024/01/28 00:56:04;;;;;;;1.20;1.20;;;;;;;-4.70;100.00;100226.63;4996190;28;20034;-89
2024/01/28 00:58:30;;;;;;;1.20;1.20;;;;;;;-4.75;100.00;100225.19;4993941;28;20036;-89
2024/01/28 01:00:56;;;;;;;1.20;1.20;;;;;;;-4.62;100.00;100224.91;4979389;28;20034;-90
2024/01/28 01:03:23;;;;;;;1.20;1.20;;;;;;;-4.38;100.00;100231.16;4980169;28;20063;-91
2024/01/28 01:05:48;;;;;;;1.30;1.30;;;;;;;-4.24;100.00;100223.94;4992057;28;20038;-90
2024/01/28 01:08:14;;;;;;;1.20;1.20;;;;;;;-4.40;100.00;100226.56;4977825;28;20038;-89
2024/01/28 01:10:41;;;;;;;1.20;1.20;;;;;;;-4.80;100.00;100227.28;4982932;28;20049;-91
2024/01/28 01:13:06;;;;;;;1.30;1.30;;;;;;;-4.79;100.00;100220.41;5001652;28;20042;-90
2024/01/28 01:15:32;;;;;;;1.20;1.20;;;;;;;-4.73;100.00;100228.91;4976947;28;20128;-89
2024/01/28 01:17:57;;;;;;;1.30;1.30;;;;;;;-4.56;100.00;100223.91;4995765;28;20065;-90
2024/01/28 01:20:23;;;;;;;1.23;1.23;;;;;;;-4.60;100.00;100221.69;4981338;28;20022;-88
2024/01/28 01:22:48;;;;;;;1.20;1.20;;;;;;;-4.59;99.84;100210.56;4977565;28;20034;-89
2024/01/28 01:25:14;;;;;;;1.20;1.20;;;;;;;-4.53;99.71;100212.91;4997046;28;20037;-89
2024/01/28 01:27:41;;;;;;;1.30;1.30;;;;;;;-4.71;98.80;100199.69;4974048;28;20038;-89
2024/01/28 01:30:07;;;;;;;1.20;1.20;;;;;;;-4.88;98.45;100202.09;4978141;28;20081;-89
2024/01/28 01:32:37;;;;;;;1.20;1.20;;;;;;;-4.69;98.44;100195.59;4980121;28;20038;-89
2024/01/28 01:35:03;;;;;;;1.30;1.30;;;;;;;-4.34;97.86;100184.63;4996943;28;20030;-89
2024/01/28 01:37:28;;;;;;;1.20;1.20;;;;;;;-4.17;97.51;100179.56;4993500;28;20308;-89
2024/01/28 01:39:54;;;;;;;1.30;1.30;;;;;;;-4.28;97.74;100173.19;4982076;28;20118;-91
2024/01/28 01:42:20;;;;;;;1.30;1.30;;;;;;;-4.50;97.32;100180.34;4985347;28;20030;-89
2024/01/28 01:44:45;;;;;;;1.20;1.20;;;;;;;-4.43;97.29;100175.03;4986333;28;20463;-89
2024/01/28 01:47:11;;;;;;;1.30;1.30;;;;;;;-4.56;97.12;100186.53;4995280;28;20092;-89
2024/01/28 01:49:37;;;;;;;1.30;1.30;;;;;;;-4.47;97.32;100178.03;4996512;28;20034;-93
2024/01/28 01:52:04;;;;;;;1.30;1.30;;;;;;;-4.41;96.82;100183.94;4996466;28;20391;-89
2024/01/28 01:54:30;;;;;;;1.30;1.30;;;;;;;-4.40;96.87;100177.97;4994303;28;20127;-89
2024/01/28 01:56:56;;;;;;;1.20;1.20;;;;;;;-4.65;96.88;100183.81;4981051;28;20571;-89
2024/01/28 01:59:22;;;;;;;1.30;1.30;;;;;;;-4.74;96.65;100186.34;4998720;28;20046;-90
2024/01/28 02:01:48;;;;;;;1.20;1.20;;;;;;;-4.53;96.56;100193.00;4981772;28;20154;-90
2024/01/28 02:04:14;;;;;;;1.30;1.30;;;;;;;-4.40;96.73;100180.59;4981766;28;20038;-93
2024/01/28 02:06:39;;;;;;;1.20;1.20;;;;;;;-4.38;97.51;100176.44;4994839;28;20114;-90
2024/01/28 02:09:06;;;;;;;1.20;1.20;;;;;;;-4.38;98.05;100180.75;4974170;28;20022;-89
2024/01/28 02:11:32;;;;;;;1.30;1.30;;;;;;;-4.47;98.05;100183.25;4992830;28;20022;-89
2024/01/28 02:13:57;;;;;;;1.20;1.20;;;;;;;-4.71;97.80;100185.75;4983421;28;20026;-87
2024/01/28 02:16:26;;;;;;;1.30;1.30;;;;;;;-4.54;97.84;100183.34;4983057;28;20357;-91
2024/01/28 02:18:51;;;;;;;1.30;1.30;;;;;;;-4.71;97.14;100185.75;5000561;28;20038;-88
2024/01/28 02:21:17;;;;;;;1.30;1.30;;;;;;;-4.78;97.02;100191.03;4996675;28;20622;-91
2024/01/28 02:23:42;;;;;;;1.20;1.20;;;;;;;-4.77;97.12;100182.47;4973280;28;20046;-89
2024/01/28 02:26:08;;;;;;;1.30;1.30;;;;;;;-4.75;97.01;100179.25;4981346;28;20083;-90
2024/01/28 02:28:33;;;;;;;1.30;1.30;;;;;;;-4.86;96.70;100178.84;4981345;28;20174;-91
2024/01/28 02:30:59;;;;;;;1.20;1.20;;;;;;;-4.91;96.47;100191.34;4989671;28;20033;-88
2024/01/28 02:33:24;;;;;;;1.30;1.30;;;;;;;-4.91;96.71;100180.91;4979390;28;20141;-91
2024/01/28 02:35:50;;;;;;;1.30;1.30;;;;;;;-5.03;96.65;100172.69;4997374;28;20080;-90
2024/01/28 02:38:15;;;;;;;1.30;1.30;;;;;;;-5.12;96.89;100174.25;5002926;28;20073;-89
2024/01/28 02:40:41;;;;;;;1.13;1.13;;;;;;;-5.32;96.36;100173.63;5001708;28;20038;-90
2024/01/28 02:43:08;;;;;;;1.30;1.30;;;;;;;-5.30;97.19;100173.06;4986082;28;20520;-91
2024/01/28 02:45:33;;;;;;;1.20;1.20;;;;;;;-5.29;97.26;100168.78;4983587;28;20038;-89
2024/01/28 02:47:58;;;;;;;1.30;1.30;;;;;;;-5.39;97.27;100179.84;4975028;28;20054;-90
2024/01/28 02:50:24;;;;;;;1.30;1.30;;;;;;;-5.44;96.41;100179.31;4980343;28;20045;-91
2024/01/28 02:52:49;;;;;;;1.30;1.30;;;;;;;-5.47;96.56;100168.53;4979484;28;20043;-88
2024/01/28 02:55:15;;;;;;;1.20;1.20;;;;;;;-5.24;97.44;100165.97;4987498;28;20655;-89
2024/01/28 02:57:40;;;;;;;1.10;1.10;;;;;;;-5.56;96.69;100164.88;4976772;28;20126;-90
2024/01/28 03:00:06;;;;;;;1.20;1.20;;;;;;;-5.32;97.68;100165.84;4997830;28;20031;-88
2024/01/28 03:02:33;;;;;;;1.20;1.20;;;;;;;-5.17;97.53;100171.13;4998575;28;20066;-88
2024/01/28 03:04:59;;;;;;;1.30;1.30;;;;;;;-5.44;96.78;100171.50;4983706;28;20041;-88
2024/01/28 03:07:24;;;;;;;1.20;1.20;;;;;;;-5.54;97.26;100168.59;5000091;28;20416;-91
2024/01/28 03:09:50;;;;;;;1.30;1.30;;;;;;;-5.30;97.80;100172.16;4995832;28;20049;-88
2024/01/28 03:12:15;;;;;;;1.30;1.30;;;;;;;-5.43;97.84;100165.53;4979076;28;20034;-88
2024/01/28 03:14:42;;;;;;;1.30;1.30;;;;;;;-5.76;96.51;100161.69;4973627;28;20050;-89
2024/01/28 03:17:08;;;;;;;1.35;1.35;;;;;;;-5.48;97.58;100164.09;4978051;28;20121;-89
2024/01/28 03:19:33;;;;;;;1.20;1.20;;;;;;;-5.32;97.76;100152.84;4984869;28;20030;-90
2024/01/28 03:21:59;;;;;;;1.30;1.30;;;;;;;-5.52;97.51;100156.69;4976576;28;20030;-88
2024/01/28 03:24:24;;;;;;;1.30;1.30;;;;;;;-5.61;97.89;100158.25;4995390;28;20429;-89
2024/01/28 03:26:50;;;;;;;1.20;1.20;;;;;;;-5.42;97.85;100162.19;4973969;28;20397;-89
2024/01/28 03:29:15;;;;;;;1.20;1.20;;;;;;;-5.49;97.51;100151.84;4993574;28;20104;-88
2024/01/28 03:31:40;;;;;;;1.30;1.30;;;;;;;-5.59;97.36;100146.38;4993041;28;20034;-91
2024/01/28 03:34:07;;;;;;;1.30;1.30;;;;;;;-5.75;96.80;100150.53;4981362;28;20156;-89
2024/01/28 03:36:32;;;;;;;1.30;1.30;;;;;;;-5.52;97.80;100140.19;4996486;28;20085;-89
2024/01/28 03:38:58;;;;;;;1.30;1.30;;;;;;;-5.48;97.71;100134.56;4993193;28;20243;-89
2024/01/28 03:41:23;;;;;;;1.30;1.30;;;;;;;-5.63;97.18;100133.75;4983348;28;20034;-88
2024/01/28 03:43:48;;;;;;;1.30;1.30;;;;;;;-5.84;96.70;100123.53;4983530;28;20041;-89
2024/01/28 03:46:14;;;;;;;1.20;1.20;;;;;;;-5.63;97.12;100132.84;4983810;28;20038;-88
2024/01/28 03:48:39;;;;;;;1.30;1.30;;;;;;;-5.34;96.80;100129.25;4980988;28;20525;-89
2024/01/28 03:51:06;;;;;;;1.20;1.20;;;;;;;-5.43;95.41;100141.22;4976313;28;20061;-89
2024/01/28 03:53:31;;;;;;;1.20;1.20;;;;;;;-5.34;95.35;100133.53;4993928;28;20041;-90
2024/01/28 03:55:58;;;;;;;1.30;1.30;;;;;;;-5.52;95.49;100135.91;4998228;28;20038;-89
2024/01/28 03:58:23;;;;;;;1.20;1.20;;;;;;;-5.57;96.25;100128.34;4994055;28;20041;-89
2024/01/28 04:00:49;;;;;;;1.30;1.30;;;;;;;-5.55;97.03;100132.06;4981744;28;20488;-89
2024/01/28 04:03:14;;;;;;;1.20;1.20;;;;;;;-5.58;97.50;100130.00;4991323;28;20518;-89
2024/01/28 04:05:39;;;;;;;1.20;1.20;;;;;;;-5.62;97.62;100135.59;4992674;28;20042;-91
2024/01/28 04:08:11;;;;;;;1.30;1.30;;;;;;;-5.74;97.12;100132.53;4996386;28;20068;-91
2024/01/28 04:10:37;;;;;;;1.30;1.30;;;;;;;-5.68;97.32;100134.91;5002304;28;20146;-93
2024/01/28 04:13:03;;;;;;;1.30;1.30;;;;;;;-5.90;97.07;100135.78;5001520;28;20046;-89
2024/01/28 04:15:28;;;;;;;1.30;1.30;;;;;;;-5.73;97.36;100137.00;4993970;28;20046;-89
2024/01/28 04:17:54;;;;;;;1.20;1.20;;;;;;;-5.54;97.11;100126.09;4992452;28;20033;-89
2024/01/28 04:20:19;;;;;;;1.30;1.30;;;;;;;-5.76;96.45;100135.69;4981297;28;20039;-91
2024/01/28 04:22:45;;;;;;;1.25;1.25;;;;;;;-5.63;96.45;100130.25;4979019;28;20103;-89
2024/01/28 04:25:12;;;;;;;1.10;1.10;;;;;;;-5.64;97.05;100144.00;4978383;28;20041;-89
2024/01/28 04:27:39;;;;;;;1.20;1.20;;;;;;;-5.53;97.20;100133.13;4979193;28;20018;-91
2024/01/28 04:30:05;;;;;;;;;;;;;;;-5.81;95.95;100134.25;4991976;28;20030;-90
2024/01/28 04:32:30;;;;;;;1.30;1.30;;;;;;;-6.12;95.78;100143.75;4980534;28;19917;-89
2024/01/28 04:34:56;;;;;;;1.20;1.20;;;;;;;-6.25;95.38;100140.47;4997722;28;20034;-89
2024/01/28 04:37:22;;;;;;;1.15;1.15;;;;;;;-6.02;96.88;100144.06;4992126;28;20034;-91
2024/01/28 04:39:49;;;;;;;1.17;1.17;;;;;;;-6.22;96.00;100138.25;4993459;28;20447;-90
2024/01/28 04:42:21;;;;;;;1.30;1.30;;;;;;;-6.13;96.82;100143.56;4993814;28;20037;-91
2024/01/28 04:44:47;;;;;;;1.30;1.30;;;;;;;-5.88;96.64;100136.91;4990641;28;20030;-89
2024/01/28 04:47:12;;;;;;;1.20;1.20;;;;;;;-5.91;95.95;100140.06;4973286;28;20037;-89
2024/01/28 04:49:38;;;;;;;1.30;1.30;;;;;;;-6.01;95.81;100143.31;4980667;28;20026;-89
2024/01/28 04:52:04;;;;;;;1.30;1.30;;;;;;;-5.93;96.78;100139.00;4979163;28;20034;-89
2024/01/28 04:54:30;;;;;;;1.30;1.30;;;;;;;-5.84;97.11;100144.31;4973700;28;20069;-89
2024/01/28 04:56:56;;;;;;;1.20;1.20;;;;;;;-5.89;97.09;100143.78;4997048;28;20038;-90
2024/01/28 04:59:22;;;;;;;1.30;1.30;;;;;;;-5.96;96.66;100146.44;4997186;28;20503;-89
2024/01/28 05:01:47;;;;;;;1.20;1.20;;;;;;;-5.76;95.93;100144.41;4984560;28;20500;-89
2024/01/28 05:04:13;;;;;;;1.20;1.20;;;;;;;-5.86;95.79;100143.19;4974823;28;20042;-88
2024/01/28 05:06:38;;;;;;;1.30;1.30;;;;;;;-5.80;95.84;100134.41;4993919;28;20040;-89
2024/01/28 05:09:04;;;;;;;1.20;1.20;;;;;;;-6.06;95.41;100134.06;4985769;28;20797;-89
2024/01/28 05:11:31;;;;;;;1.20;1.20;;;;;;;-5.99;95.43;100127.88;4986278;28;20030;-90
2024/01/28 05:13:57;;;;;;;1.30;1.30;;;;;;;-5.99;96.11;100134.03;4992082;28;20164;-89
2024/01/28 05:16:25;;;;;;;1.30;1.30;;;;;;;-6.16;94.94;100125.97;4982992;28;20054;-89
2024/01/28 05:18:51;;;;;;;1.23;1.23;;;;;;;-6.13;94.37;100131.53;4981694;28;20033;-89
2024/01/28 05:21:18;;;;;;;1.30;1.30;;;;;;;-6.01;94.21;100130.31;4983515;28;20250;-90
2024/01/28 05:23:45;;;;;;;1.30;1.30;;;;;;;-5.89;94.83;100128.19;4981742;28;20036;-89
2024/01/28 05:26:11;;;;;;;1.20;1.20;;;;;;;-6.02;94.71;100133.69;4979232;28;20030;-90
2024/01/28 05:28:37;;;;;;;1.20;1.20;;;;;;;-6.16;95.76;100130.22;4998988;28;20597;-89
2024/01/28 05:31:02;;;;;;;1.30;1.30;;;;;;;-6.13;96.32;100126.34;4980716;28;20033;-90
2024/01/28 05:33:28;;;;;;;1.33;1.33;;;;;;;-6.21;96.09;100128.03;4980331;28;20018;-89
2024/01/28 05:35:54;;;;;;;1.20;1.20;;;;;;;-6.16;96.51;100123.38;5000111;28;20034;-91
2024/01/28 05:38:19;;;;;;;1.27;1.27;;;;;;;-6.30;95.86;100136.41;4995611;28;20038;-87
2024/01/28 05:40:45;;;;;;;1.20;1.20;;;;;;;-6.49;95.57;100121.28;4982042;28;20038;-89
2024/01/28 05:43:10;;;;;;;1.30;1.30;;;;;;;-6.42;96.46;100130.69;4998081;28;20027;-89
2024/01/28 05:45:35;;;;;;;1.20;1.20;;;;;;;-6.59;95.72;100133.00;4982265;28;20045;-90
2024/01/28 05:48:01;;;;;;;1.40;1.40;;;;;;;-6.56;96.15;100138.56;4980037;28;20030;-90
2024/01/28 05:50:30;;;;;;;1.30;1.30;;;;;;;-6.27;97.26;100131.59;4986245;28;20490;-90
2024/01/28 05:52:55;;;;;;;1.30;1.30;;;;;;;-6.20;97.10;100134.13;4984693;28;20054;-89
2024/01/28 05:55:21;;;;;;;1.30;1.30;;;;;;;-6.29;96.12;100135.66;4976863;28;20156;-88
2024/01/28 05:57:46;;;;;;;1.30;1.30;;;;;;;-6.18;96.79;100137.81;4998472;28;20039;-90
2024/01/28 06:00:13;;;;;;;1.20;1.20;;;;;;;-6.29;95.97;100136.59;4980764;28;20399;-88
2024/01/28 06:02:38;;;;;;;1.33;1.33;;;;;;;-6.10;97.05;100133.53;4978858;28;20034;-91
2024/01/28 06:05:05;;;;;;;1.30;1.30;;;;;;;-6.38;96.54;100132.91;4996205;28;20044;-89
2024/01/28 06:07:30;;;;;;;1.30;1.30;;;;;;;-6.17;96.88;100131.91;4976637;28;20707;-90
2024/01/28 06:09:56;;;;;;;1.30;1.30;;;;;;;-6.35;96.28;100133.28;4983629;28;20031;-90
2024/01/28 06:12:21;;;;;;;1.30;1.30;;;;;;;-6.51;96.44;100143.56;4976268;28;20033;-89
2024/01/28 06:14:47;;;;;;;1.30;1.30;;;;;;;-6.54;96.29;100144.84;4993075;28;20038;-89
2024/01/28 06:17:14;;;;;;;1.30;1.30;;;;;;;-6.57;96.20;100142.81;4998962;28;20022;-92
2024/01/28 06:19:39;;;;;;;1.30;1.30;;;;;;;-6.59;96.35;100146.91;4978381;28;20042;-89
2024/01/28 06:22:05;;;;;;;1.20;1.20;;;;;;;-6.50;96.49;100140.22;4977985;28;20125;-90
2024/01/28 06:24:30;;;;;;;1.30;1.30;;;;;;;-6.65;95.64;100133.22;4980475;28;20045;-91
2024/01/28 06:26:56;;;;;;;1.30;1.30;;;;;;;-6.40;96.60;100134.41;4979950;28;20158;-89
2024/01/28 06:29:21;;;;;;;1.30;1.30;;;;;;;-6.40;96.21;100133.50;5001799;28;20075;-89
2024/01/28 06:31:46;;;;;;;1.30;1.30;;;;;;;-6.42;95.78;100132.38;5003029;28;20038;-90
2024/01/28 06:34:12;;;;;;;1.20;1.20;;;;;;;-6.41;96.65;100135.19;4980437;28;20037;-89
2024/01/28 06:36:38;;;;;;;1.15;1.15;;;;;;;-6.48;96.64;100130.00;4995610;28;20042;-90
2024/01/28 06:39:04;;;;;;;1.20;1.20;;;;;;;-6.48;96.13;100135.19;4974420;28;20053;-90
2024/01/28 06:41:29;;;;;;;1.30;1.30;;;;;;;-6.36;96.24;100131.44;4984991;28;20065;-89
2024/01/28 06:43:54;;;;;;;1.30;1.30;;;;;;;-6.37;95.59;100136.44;4978744;28;20092;-91
2024/01/28 06:46:20;;;;;;;1.20;1.20;;;;;;;-6.65;94.80;100141.00;4996272;28;20125;-90
2024/01/28 06:48:45;;;;;;;1.27;1.27;;;;;;;-6.81;93.40;100145.09;4983016;28;20046;-89
2024/01/28 06:51:11;;;;;;;1.30;1.30;;;;;;;-6.65;93.38;100147.88;4977333;28;20050;-88
2024/01/28 06:53:37;;;;;;;1.33;1.33;;;;;;;-6.50;93.59;100150.59;4999224;28;20044;-90
2024/01/28 06:56:02;;;;;;;1.20;1.20;;;;;;;-6.34;94.17;100144.59;4977399;28;20031;-89
2024/01/28 06:58:28;;;;;;;1.30;1.30;;;;;;;-6.48;94.39;100141.28;4977490;28;20026;-90
2024/01/28 07:00:55;;;;;;;1.30;1.30;;;;;;;-6.27;94.05;100152.38;4982410;28;20057;-90
2024/01/28 07:03:21;;;;;;;1.20;1.20;;;;;;;-6.27;94.25;100147.19;4982682;28;20121;-90
2024/01/28 07:05:46;;;;;;;1.20;1.20;;;;;;;-6.30;94.26;100154.59;4979442;28;20066;-89
2024/01/28 07:08:12;;;;;;;1.20;1.20;;;;;;;-6.31;94.65;100153.69;4976940;28;20041;-90
2024/01/28 07:10:37;;;;;;;1.30;1.30;;;;;;;-6.33;94.48;100156.81;4994941;28;20062;-89
2024/01/28 07:13:03;;;;;;;1.20;1.20;;;;;;;-6.33;94.48;100149.03;4972080;28;20344;-89
2024/01/28 07:15:32;;;;;;;1.30;1.30;;;;;;;-6.23;94.52;100160.69;4984908;28;20022;-90
2024/01/28 07:17:57;;;;;;;1.20;1.20;;;;;;;-6.32;94.06;100161.28;5008691;28;20042;-89
2024/01/28 07:20:23;;;;;;;1.20;1.20;;;;;;;-6.26;93.77;100160.31;4983309;28;20037;-89
2024/01/28 07:22:48;;;;;;;1.30;1.30;;;;;;;-6.27;94.16;100161.09;4985575;28;20040;-90
2024/01/28 07:25:14;;;;;;;1.20;1.20;;;;;;;-6.28;93.65;100156.59;4996773;28;20054;-89
2024/01/28 07:27:40;;;;;;;1.27;1.27;;;;;;;-6.04;94.51;100161.13;4988357;28;20513;-90
2024/01/28 07:30:07;;;;;;;1.20;1.20;;;;;;;-6.04;94.54;100168.94;4980055;28;20068;-88
2024/01/28 07:32:32;;;;;;;1.40;1.40;;;;;;;-6.27;93.50;100170.53;4977912;28;20504;-88
2024/01/28 07:34:58;;;;;;;1.30;1.30;;;;;;;-6.25;93.74;100166.44;4975047;28;20044;-89
2024/01/28 07:37:23;;;;;;;1.30;1.30;;;;;;;-6.04;94.48;100163.72;4983371;28;20384;-89
2024/01/28 07:39:49;;;;;;;1.27;1.27;;;;;;;-5.91;94.08;100154.78;4995199;28;20456;-90
2024/01/28 07:42:14;;;;;;;1.30;1.30;;;;;;;-5.80;93.94;100162.09;4980316;28;20479;-90
2024/01/28 07:44:39;;;;;;;1.10;1.10;;;;;;;-5.66;93.98;100151.59;4978885;28;20105;-90
2024/01/28 07:47:05;;;;;;;1.20;1.20;;;;;;;-5.47;93.49;100152.94;4994737;28;20045;-88
2024/01/28 07:49:31;;;;;;;1.20;1.20;;;;;;;-5.48;92.97;100148.50;4992143;28;20046;-91
2024/01/28 07:51:56;;;;;;;1.20;1.20;;;;;;;-5.33;93.12;100151.00;5010299;28;20068;-88
2024/01/28 07:54:22;;;;;;;1.30;1.30;;;;;;;-5.34;92.47;100143.94;4994963;28;20021;-91
2024/01/28 07:56:47;;;;;;;1.30;1.30;;;;;;;-5.13;91.97;100150.63;5002038;28;20069;-91
2024/01/28 07:59:13;;;;;;;1.30;1.30;;;;;;;-4.84;92.09;100149.59;4980437;28;20043;-89
2024/01/28 08:01:38;;;;;;;1.20;1.20;;;;;;;-4.77;92.26;100151.22;4982997;28;20030;-89
2024/01/28 08:04:04;;;;;;;1.20;1.20;;;;;;;-4.54;92.21;100143.38;4978800;28;20076;-90
2024/01/28 08:06:30;;;;;;;1.30;1.30;;;;;;;-4.33;92.08;100144.78;4980072;28;20083;-89
2024/01/28 08:09:00;;;;;;;1.30;1.30;;;;;;;-3.82;91.47;100143.38;4996423;28;20031;-88
2024/01/28 08:11:26;;;;;;;1.30;1.30;;;;;;;-3.07;90.76;100128.75;4978045;28;20533;-90
2024/01/28 08:13:51;;;;;;;1.30;1.30;;;;;;;-2.17;90.14;100124.03;4978146;28;20102;-89
2024/01/28 08:16:16;;;;;;;1.25;1.25;;;;;;;-2.13;88.42;100126.19;4977406;28;20022;-90
2024/01/28 08:18:42;;;;;;;1.20;1.20;;;;;;;-2.20;87.95;100128.97;4999823;28;20037;-90
2024/01/28 08:21:08;;;;;;;1.20;1.20;;;;;;;-1.82;85.86;100120.66;4988120;28;20030;-92
2024/01/28 08:23:34;;;;;;;1.10;1.10;;;;;;;-1.26;87.00;100115.59;4988137;28;20089;-90
2024/01/28 08:26:05;;;;;;;1.10;1.10;;;;;;;-1.12;86.74;100123.09;5000176;28;20038;-92
2024/01/28 08:28:31;;;;;;;1.20;1.20;;;;;;;-0.52;85.09;100112.31;4977956;28;20045;-92
2024/01/28 08:30:56;;;;;;;1.10;1.10;;;;;;;0.08;83.92;100109.09;4998211;28;20038;-93
2024/01/28 08:33:22;;;;;;;1.10;1.10;;;;;;;0.83;84.36;100102.78;4990249;28;20118;-93
2024/01/28 08:35:48;;;;;;;1.10;1.10;;;;;;;0.96;84.42;100104.00;4982069;28;20084;-92
2024/01/28 08:38:13;;;;;;;1.00;1.00;;;;;;;1.94;84.09;100095.78;4978586;28;20448;-92
2024/01/28 08:40:39;;;;;;;1.00;1.00;;;;;;;2.51;82.35;100090.91;4983274;28;20068;-93
2024/01/28 08:43:07;;;;;;;0.98;0.98;;;;;;;2.48;75.88;100094.19;4998307;28;20129;-92
2024/01/28 08:45:50;;;;;;;1.00;1.00;;;;;;;2.97;80.93;100092.00;5002724;28;20033;-93
2024/01/28 08:48:16;;;;;;;1.00;1.00;;;;;;;3.41;79.21;100089.38;4992109;28;20033;-93
2024/01/28 08:50:41;;;;;;;1.10;1.10;;;;;;;3.23;72.77;100086.19;4975857;28;20090;-93
2024/01/28 08:53:07;;;;;;;1.00;1.00;;;;;;;3.57;78.02;100087.13;4985490;28;20034;-94
2024/01/28 08:55:34;;;;;;;1.00;1.00;;;;;;;3.90;76.24;100086.19;4996976;28;20046;-91
2024/01/28 08:58:01;;;;;;;1.00;1.00;;;;;;;4.13;75.28;100093.25;4979491;28;20300;-93
2024/01/28 09:00:26;;;;;;;1.00;1.00;;;;;;;4.52;76.68;100094.41;4985561;28;20464;-92
2024/01/28 09:02:52;;;;;;;0.90;0.90;;;;;;;4.59;74.76;100094.03;5003689;28;20038;-92
2024/01/28 09:05:17;;;;;;;0.77;0.77;;;;;;;4.29;74.05;100097.94;4977713;28;20089;-94
2024/01/28 09:07:45;;;;;;;0.90;0.90;;;;;;;4.63;73.40;100094.38;4977913;28;20058;-94
2024/01/28 09:10:18;;;;;;;0.90;0.90;;;;;;;4.92;71.58;100090.31;5000836;28;20456;-94
2024/01/28 09:12:55;;;;;;;0.82;0.82;;;;;;;5.11;70.65;100082.00;4996805;28;20042;-95
2024/01/28 09:15:23;;;;;;;0.90;0.90;;;;;;;5.43;72.48;100076.38;4998905;28;20030;-94
2024/01/28 09:18:27;;;;;;;0.90;0.90;;;;;;;5.77;73.16;100077.00;4996324;28;20107;-92
2024/01/28 09:20:53;;;;;;;0.90;0.90;;;;;;;5.97;71.96;100077.50;5001801;28;20084;-92
2024/01/28 09:23:24;;;;;;;0.80;0.80;;;;;;;5.19;67.25;100079.91;4965865;28;20180;-92
2024/01/28 09:25:51;;;;;;;0.80;0.80;;;;;;;6.32;72.20;100083.44;5001459;28;20034;-92
2024/01/28 09:28:17;;;;;;;0.70;0.70;;;;;;;5.17;76.12;100073.56;4999665;28;20089;-93
2024/01/28 09:30:43;;;;;;;0.70;0.70;;;;;;;6.78;71.23;100070.59;4995380;28;20040;-92
2024/01/28 09:33:10;;;;;;;0.80;0.80;;;;;;;7.08;68.84;100068.09;4988123;28;20419;-91
2024/01/28 09:35:39;;;;;;;0.70;0.70;;;;;;;7.28;68.38;100066.72;4999133;28;20396;-92
2024/01/28 09:38:09;;;;;;;0.70;0.70;;;;;;;6.56;67.05;100062.94;5008435;28;20053;-91
2024/01/28 09:40:35;;;;;;;0.70;0.70;;;;;;;7.63;68.26;100063.63;4998701;28;20380;-92
2024/01/28 09:46:36;;;;;;;0.70;0.70;;;;;;;8.25;64.16;100063.88;4989397;28;20044;-93
2024/01/28 09:49:11;;;;;;;0.65;0.65;;;;;;;8.47;61.22;100066.09;4993243;28;20092;-93
2024/01/28 09:51:40;;;;;;;0.70;0.70;;;;;;;8.28;61.74;100061.38;4989512;28;20034;-93
2024/01/28 09:54:08;;;;;;;0.70;0.70;;;;;;;8.57;65.14;100056.91;4985932;28;20685;-93
2024/01/28 09:56:36;;;;;;;0.70;0.70;;;;;;;9.10;62.92;100056.38;4993477;28;20050;-94
2024/01/28 09:59:05;;;;;;;0.60;0.60;;;;;;;8.81;61.37;100066.28;5008120;28;20627;-93
2024/01/28 10:01:32;;;;;;;0.60;0.60;;;;;;;9.33;59.05;100063.91;5000719;28;20030;-92
2024/01/28 10:04:00;;;;;;;0.60;0.60;;;;;;;9.18;62.76;100057.75;4975360;28;20515;-94
2024/01/28 10:06:26;;;;;;;0.60;0.60;;;;;;;9.23;59.93;100056.25;5003287;28;20067;-93
2024/01/28 10:08:52;;;;;;;0.60;0.60;;;;;;;10.27;59.59;100045.88;4982928;28;20392;-93
2024/01/28 10:11:18;;;;;;;0.57;0.57;;;;;;;10.28;57.65;100045.94;4983237;28;20516;-93
2024/01/28 10:13:45;;;;;;;0.53;0.53;;;;;;;10.30;59.44;100054.03;4993048;28;20046;-93
2024/01/28 10:16:11;;;;;;;0.50;0.50;;;;;;;11.77;60.36;100037.09;4968902;28;20145;-92
2024/01/28 10:18:38;;;;;;;0.50;0.50;;;;;;;12.35;54.04;100042.38;4982776;28;20053;-93
2024/01/28 10:21:05;;;;;;;0.47;0.47;;;;;;;12.46;53.39;100033.06;4998054;28;20030;-92
2024/01/28 10:23:36;;;;;;;0.40;0.40;;;;;;;12.42;51.44;100033.78;4998923;28;20030;-92
2024/01/28 10:26:05;;;;;;;0.40;0.40;;;;;;;12.36;49.53;100033.53;4998015;28;20106;-95
2024/01/28 10:28:33;;;;;;;0.40;0.40;;;;;;;12.52;49.70;100025.28;5012714;28;20061;-93
2024/01/28 10:30:58;;;;;;;0.40;0.40;;;;;;;13.45;48.17;100014.75;4992264;28;20143;-95
2024/01/28 10:33:24;;;;;;;0.40;0.40;;;;;;;13.97;44.86;100014.00;4976043;28;20066;-94
2024/01/28 10:35:51;;;;;;;0.40;0.40;;;;;;;13.89;45.00;100018.16;4992551;28;20033;-93
2024/01/28 10:38:24;;;;;;;0.40;0.40;;;;;;;14.18;42.44;100010.25;4989508;28;20042;-93
2024/01/28 10:40:51;;;;;;;0.40;0.40;;;;;;;14.52;41.52;100012.41;4985564;28;20037;-94
2024/01/28 10:43:25;;;;;;;0.50;0.50;;;;;;;14.43;42.09;100018.31;4973532;28;20384;-93
2024/01/28 10:45:54;;;;;;;0.40;0.40;;;;;;;14.75;41.25;100007.75;4996791;28;20053;-93
2024/01/28 10:48:23;;;;;;;0.40;0.40;;;;;;;15.11;41.61;100003.59;4981023;28;20029;-93
2024/01/28 10:50:51;;;;;;;0.40;0.40;;;;;;;15.56;39.85;99997.75;5001707;28;20125;-92
2024/01/28 10:53:18;;;;;;;0.30;0.30;;;;;;;16.30;39.41;99991.81;4991895;28;20038;-92
2024/01/28 10:55:44;;;;;;;0.30;0.30;;;;;;;16.67;36.46;99989.19;5003975;28;20021;-93
2024/01/28 10:58:14;;;;;;;0.40;0.40;;;;;;;17.04;37.11;99987.38;4993206;28;20547;-94
2024/01/28 11:00:41;;;;;;;0.30;0.30;;;;;;;17.12;36.33;99983.09;5006520;28;20029;-94
2024/01/28 11:03:08;;;;;;;;;;;;;;;17.07;37.34;99983.88;4969604;28;20422;-94
2024/01/28 11:05:37;;;;;;;0.30;0.30;;;;;;;16.95;35.47;99973.69;4970168;28;19918;-91
2024/01/28 11:08:04;;;;;;;0.30;0.30;;;;;;;17.35;34.72;99967.44;4969989;28;20030;-93
2024/01/28 11:10:33;;;;;;;0.30;0.30;;;;;;;17.40;34.99;99962.13;4969523;28;20138;-94
2024/01/28 11:13:00;;;;;;;0.30;0.30;;;;;;;17.50;33.96;99958.75;4970287;28;20042;-91
2024/01/28 11:15:29;;;;;;;0.20;0.20;;;;;;;16.92;35.34;99957.47;4977862;28;20027;-91
2024/01/28 11:17:54;;;;;;;0.28;0.28;;;;;;;18.13;31.96;99955.53;4982347;28;20034;-93
2024/01/28 11:20:27;;;;;;;0.30;0.30;;;;;;;18.71;31.91;99943.06;4975501;28;20172;-92
2024/01/28 11:22:58;;;;;;;0.20;0.20;;;;;;;19.08;30.13;99943.63;4980210;28;20472;-92
2024/01/28 11:25:26;;;;;;;0.30;0.30;;;;;;;18.94;29.39;99942.50;4964696;28;20106;-93
2024/01/28 11:27:58;;;;;;;0.20;0.20;;;;;;;18.08;31.49;99937.44;4988289;28;20058;-94